sensor_id;sensor_type;location;lat;lon;timestamp;pressure;altitude;pressure_sealevel;temperature;humidity
39301;BME280;25019;42.626;23.380;2023-01-29T00:01:24;94441.09;;;-2.33;100.00
39301;BME280;25019;42.626;23.380;2023-01-29T00:03:50;94500.34;;;-1.87;100.00
39301;BME280;25019;42.626;23.380;2023-01-29T00:06:17;94345.03;;;-2.91;100.00
39301;BME280;25019;42.626;23.380;2023-01-29T00:08:42;94442.72;;;-2.32;100.00
39301;BME280;25019;42.626;23.380;2023-01-29T00:11:08;94510.91;;;-1.88;100.00
39301;BME280;25019;42.626;23.380;2023-01-29T00:13:35;94506.34;;;-1.94;100.00
39301;BME280;25019;42.626;23.380;2023-01-29T00:16:01;94527.00;;;-1.85;100.00
39301;BME280;25019;42.626;23.380;2023-01-29T00:18:27;94522.44;;;-1.83;100.00
39301;BME280;25019;42.626;23.380;2023-01-29T00:20:54;94530.72;;;-1.79;100.00
39301;BME280;25019;42.626;23.380;2023-01-29T00:23:20;94531.38;;;-1.77;100.00
39301;BME280;25019;42.626;23.380;2023-01-29T00:25:46;94515.94;;;-1.87;100.00
39301;BME280;25019;42.626;23.380;2023-01-29T00:28:12;94447.94;;;-2.32;100.00
39301;BME280;25019;42.626;23.380;2023-01-29T00:30:37;94525.38;;;-1.86;100.00
39301;BME280;25019;42.626;23.380;2023-01-29T00:33:04;94550.91;;;-1.73;100.00
39301;BME280;25019;42.626;23.380;2023-01-29T00:35:30;94512.38;;;-1.94;100.00
39301;BME280;25019;42.626;23.380;2023-01-29T00:37:56;94544.84;;;-1.73;100.00
39301;BME280;25019;42.626;23.380;2023-01-29T00:40:23;94548.78;;;-1.77;100.00
39301;BME280;25019;42.626;23.380;2023-01-29T00:42:49;94533.16;;;-1.77;100.00
39301;BME280;25019;42.626;23.380;2023-01-29T00:45:33;94541.28;;;-1.81;100.00
39301;BME280;25019;42.626;23.380;2023-01-29T00:48:02;94451.84;;;-2.36;100.00
39301;BME280;25019;42.626;23.380;2023-01-29T00:50:28;94474.41;;;-2.28;100.00
39301;BME280;25019;42.626;23.380;2023-01-29T00:52:54;94543.91;;;-1.81;100.00
39301;BME280;25019;42.626;23.380;2023-01-29T00:55:20;94527.66;;;-1.83;100.00
39301;BME280;25019;42.626;23.380;2023-01-29T00:57:47;94542.78;;;-1.78;100.00
39301;BME280;25019;42.626;23.380;2023-01-29T01:00:16;94535.63;;;-1.92;100.00
39301;BME280;25019;42.626;23.380;2023-01-29T01:02:42;94531.78;;;-1.97;100.00
39301;BME280;25019;42.626;23.380;2023-01-29T01:05:27;94540.38;;;-1.96;100.00
39301;BME280;25019;42.626;23.380;2023-01-29T01:07:55;94540.88;;;-2.01;100.00
39301;BME280;25019;42.626;23.380;2023-01-29T01:10:24;94490.03;;;-2.28;100.00
39301;BME280;25019;42.626;23.380;2023-01-29T01:13:02;94510.81;;;-2.12;100.00
39301;BME280;25019;42.626;23.380;2023-01-29T01:15:31;94455.63;;;-2.47;100.00
39301;BME280;25019;42.626;23.380;2023-01-29T01:17:59;94536.00;;;-1.96;100.00
39301;BME280;25019;42.626;23.380;2023-01-29T01:20:28;94542.34;;;-1.98;100.00
39301;BME280;25019;42.626;23.380;2023-01-29T01:22:54;94522.69;;;-2.09;100.00
39301;BME280;25019;42.626;23.380;2023-01-29T01:25:21;94542.34;;;-1.98;100.00
39301;BME280;25019;42.626;23.380;2023-01-29T01:27:53;94515.34;;;-2.05;100.00
39301;BME280;25019;42.626;23.380;2023-01-29T01:30:19;94532.59;;;-2.04;100.00
39301;BME280;25019;42.626;23.380;2023-01-29T01:32:45;94532.75;;;-1.98;100.00
39301;BME280;25019;42.626;23.380;2023-01-29T01:35:11;94539.72;;;-1.98;100.00
39301;BME280;25019;42.626;23.380;2023-01-29T01:37:39;94532.44;;;-2.03;100.00
39301;BME280;25019;42.626;23.380;2023-01-29T01:40:10;94540.06;;;-1.93;100.00
39301;BME280;25019;42.626;23.380;2023-01-29T01:42:40;94471.34;;;-2.32;100.00
39301;BME280;25019;42.626;23.380;2023-01-29T01:45:13;94540.50;;;-1.89;100.00
39301;BME280;25019;42.626;23.380;2023-01-29T01:47:46;94459.50;;;-2.43;100.00
39301;BME280;25019;42.626;23.380;2023-01-29T01:50:34;94539.59;;;-1.97;100.00
39301;BME280;25019;42.626;23.380;2023-01-29T01:53:08;94538.94;;;-1.99;100.00
39301;BME280;25019;42.626;23.380;2023-01-29T01:55:38;94542.00;;;-1.95;100.00
39301;BME280;25019;42.626;23.380;2023-01-29T01:58:09;94533.88;;;-2.00;100.00
39301;BME280;25019;42.626;23.380;2023-01-29T02:00:38;94556.31;;;-1.99;100.00
39301;BME280;25019;42.626;23.380;2023-01-29T02:03:04;94553.72;;;-1.99;100.00
39301;BME280;25019;42.626;23.380;2023-01-29T02:05:49;94484.22;;;-2.47;100.00
39301;BME280;25019;42.626;23.380;2023-01-29T02:08:42;94554.69;;;-2.00;100.00
39301;BME280;25019;42.626;23.380;2023-01-29T02:11:29;94546.56;;;-2.05;100.00
39301;BME280;25019;42.626;23.380;2023-01-29T02:13:55;94555.22;;;-2.05;100.00
39301;BME280;25019;42.626;23.380;2023-01-29T02:16:24;94552.59;;;-2.05;100.00
39301;BME280;25019;42.626;23.380;2023-01-29T02:18:50;94434.88;;;-2.88;100.00
39301;BME280;25019;42.626;23.380;2023-01-29T02:21:35;94557.47;;;-2.02;100.00
39301;BME280;25019;42.626;23.380;2023-01-29T02:24:29;94476.78;;;-2.66;100.00
39301;BME280;25019;42.626;23.380;2023-01-29T02:27:05;94566.41;;;-2.04;100.00
39301;BME280;25019;42.626;23.380;2023-01-29T02:32:52;94571.81;;;-2.06;100.00
39301;BME280;25019;42.626;23.380;2023-01-29T02:35:28;94566.75;;;-2.07;100.00
39301;BME280;25019;42.626;23.380;2023-01-29T02:38:15;94578.97;;;-2.08;100.00
39301;BME280;25019;42.626;23.380;2023-01-29T02:40:45;94476.47;;;-2.72;100.00
39301;BME280;25019;42.626;23.380;2023-01-29T02:43:38;94582.72;;;-2.11;100.00
39301;BME280;25019;42.626;23.380;2023-01-29T02:48:42;94573.78;;;-2.24;100.00
39301;BME280;25019;42.626;23.380;2023-01-29T02:51:19;94587.28;;;-2.13;100.00
39301;BME280;25019;42.626;23.380;2023-01-29T02:53:55;94587.75;;;-2.17;100.00
39301;BME280;25019;42.626;23.380;2023-01-29T02:56:36;94575.09;;;-2.29;100.00
39301;BME280;25019;42.626;23.380;2023-01-29T02:59:11;94542.44;;;-2.48;100.00
39301;BME280;25019;42.626;23.380;2023-01-29T03:01:45;94566.97;;;-2.34;100.00
39301;BME280;25019;42.626;23.380;2023-01-29T03:04:18;94539.00;;;-2.48;100.00
39301;BME280;25019;42.626;23.380;2023-01-29T03:06:48;94580.44;;;-2.22;100.00
39301;BME280;25019;42.626;23.380;2023-01-29T03:09:45;94590.84;;;-2.22;100.00
39301;BME280;25019;42.626;23.380;2023-01-29T03:12:25;94514.63;;;-2.72;100.00
39301;BME280;25019;42.626;23.380;2023-01-29T03:15:34;94586.44;;;-2.21;100.00
39301;BME280;25019;42.626;23.380;2023-01-29T03:18:22;94585.16;;;-2.17;100.00
39301;BME280;25019;42.626;23.380;2023-01-29T03:20:55;94515.44;;;-2.63;100.00
39301;BME280;25019;42.626;23.380;2023-01-29T03:23:27;94513.00;;;-2.65;100.00
39301;BME280;25019;42.626;23.380;2023-01-29T03:26:15;94595.09;;;-2.13;100.00
39301;BME280;25019;42.626;23.380;2023-01-29T03:29:03;94586.78;;;-2.16;100.00
39301;BME280;25019;42.626;23.380;2023-01-29T03:31:51;94594.56;;;-2.08;100.00
39301;BME280;25019;42.626;23.380;2023-01-29T03:34:41;94591.47;;;-2.03;100.00
39301;BME280;25019;42.626;23.380;2023-01-29T03:37:21;94592.13;;;-2.01;100.00
39301;BME280;25019;42.626;23.380;2023-01-29T03:39:48;94585.16;;;-2.09;100.00
39301;BME280;25019;42.626;23.380;2023-01-29T03:42:48;94531.53;;;-2.43;100.00
39301;BME280;25019;42.626;23.380;2023-01-29T03:45:23;94591.78;;;-1.98;100.00
39301;BME280;25019;42.626;23.380;2023-01-29T03:48:14;94581.06;;;-2.03;100.00
39301;BME280;25019;42.626;23.380;2023-01-29T03:50:54;94599.09;;;-1.93;100.00
39301;BME280;25019;42.626;23.380;2023-01-29T03:53:27;94595.88;;;-1.96;100.00
39301;BME280;25019;42.626;23.380;2023-01-29T03:58:57;94592.13;;;-1.93;100.00
39301;BME280;25019;42.626;23.380;2023-01-29T04:04:07;94594.88;;;-1.94;100.00
39301;BME280;25019;42.626;23.380;2023-01-29T04:06:37;94598.63;;;-1.97;100.00
39301;BME280;25019;42.626;23.380;2023-01-29T04:09:31;94552.66;;;-2.30;100.00
39301;BME280;25019;42.626;23.380;2023-01-29T04:12:10;94600.25;;;-2.04;100.00
39301;BME280;25019;42.626;23.380;2023-01-29T04:14:40;94598.47;;;-2.04;100.00
39301;BME280;25019;42.626;23.380;2023-01-29T04:17:17;94609.38;;;-2.00;100.00
39301;BME280;25019;42.626;23.380;2023-01-29T04:20:02;94617.16;;;-1.92;100.00
39301;BME280;25019;42.626;23.380;2023-01-29T04:22:32;94590.16;;;-2.07;100.00
39301;BME280;25019;42.626;23.380;2023-01-29T04:25:03;94607.59;;;-2.00;100.00
39301;BME280;25019;42.626;23.380;2023-01-29T04:33:23;94611.97;;;-2.00;100.00
39301;BME280;25019;42.626;23.380;2023-01-29T04:49:04;94614.09;;;-1.96;100.00
39301;BME280;25019;42.626;23.380;2023-01-29T04:51:42;94612.28;;;-1.95;100.00
39301;BME280;25019;42.626;23.380;2023-01-29T04:54:33;94618.66;;;-1.98;100.00
39301;BME280;25019;42.626;23.380;2023-01-29T05:00:26;94616.19;;;-2.07;100.00
39301;BME280;25019;42.626;23.380;2023-01-29T05:02:53;94616.56;;;-2.11;100.00
39301;BME280;25019;42.626;23.380;2023-01-29T05:05:19;94620.44;;;-2.06;100.00
39301;BME280;25019;42.626;23.380;2023-01-29T05:07:46;94620.78;;;-2.09;100.00
39301;BME280;25019;42.626;23.380;2023-01-29T05:10:14;94616.69;;;-2.12;100.00
39301;BME280;25019;42.626;23.380;2023-01-29T05:12:43;94615.06;;;-2.13;100.00
39301;BME280;25019;42.626;23.380;2023-01-29T05:15:14;94624.84;;;-2.15;100.00
39301;BME280;25019;42.626;23.380;2023-01-29T05:17:42;94624.50;;;-2.12;100.00
39301;BME280;25019;42.626;23.380;2023-01-29T05:20:09;94609.53;;;-2.18;100.00
39301;BME280;25019;42.626;23.380;2023-01-29T05:22:38;94629.56;;;-2.11;100.00
39301;BME280;25019;42.626;23.380;2023-01-29T05:25:20;94617.19;;;-2.17;100.00
39301;BME280;25019;42.626;23.380;2023-01-29T05:27:48;94634.25;;;-2.14;100.00
39301;BME280;25019;42.626;23.380;2023-01-29T05:30:37;94624.69;;;-2.14;100.00
39301;BME280;25019;42.626;23.380;2023-01-29T05:33:08;94628.91;;;-2.21;100.00
39301;BME280;25019;42.626;23.380;2023-01-29T05:35:36;94649.88;;;-2.14;100.00
39301;BME280;25019;42.626;23.380;2023-01-29T05:38:01;94640.44;;;-2.15;100.00
39301;BME280;25019;42.626;23.380;2023-01-29T05:40:27;94650.06;;;-2.16;100.00
39301;BME280;25019;42.626;23.380;2023-01-29T05:42:53;94643.84;;;-2.06;100.00
39301;BME280;25019;42.626;23.380;2023-01-29T05:45:18;94560.16;;;-2.60;100.00
39301;BME280;25019;42.626;23.380;2023-01-29T05:47:44;94630.53;;;-2.12;100.00
39301;BME280;25019;42.626;23.380;2023-01-29T05:50:11;94647.75;;;-1.94;100.00
39301;BME280;25019;42.626;23.380;2023-01-29T05:52:37;94626.59;;;-2.07;100.00
39301;BME280;25019;42.626;23.380;2023-01-29T05:55:03;94626.59;;;-1.99;100.00
39301;BME280;25019;42.626;23.380;2023-01-29T05:57:28;94642.88;;;-1.89;100.00
39301;BME280;25019;42.626;23.380;2023-01-29T05:59:54;94601.91;;;-2.20;100.00
39301;BME280;25019;42.626;23.380;2023-01-29T06:02:20;94651.34;;;-1.95;100.00
39301;BME280;25019;42.626;23.380;2023-01-29T06:04:45;94652.63;;;-1.99;100.00
39301;BME280;25019;42.626;23.380;2023-01-29T06:07:11;94666.81;;;-2.02;100.00
39301;BME280;25019;42.626;23.380;2023-01-29T06:09:36;94662.56;;;-2.03;100.00
39301;BME280;25019;42.626;23.380;2023-01-29T06:12:02;94666.47;;;-2.07;100.00
39301;BME280;25019;42.626;23.380;2023-01-29T06:14:30;94664.69;;;-2.06;100.00
39301;BME280;25019;42.626;23.380;2023-01-29T06:16:56;94674.13;;;-2.05;100.00
39301;BME280;25019;42.626;23.380;2023-01-29T06:19:22;94677.38;;;-2.03;100.00
39301;BME280;25019;42.626;23.380;2023-01-29T06:21:48;94676.91;;;-1.99;100.00
39301;BME280;25019;42.626;23.380;2023-01-29T06:24:13;94687.28;;;-1.90;100.00
39301;BME280;25019;42.626;23.380;2023-01-29T06:26:39;94685.00;;;-1.85;100.00
39301;BME280;25019;42.626;23.380;2023-01-29T06:29:04;94689.25;;;-1.84;100.00
39301;BME280;25019;42.626;23.380;2023-01-29T06:31:30;94696.06;;;-1.83;100.00
39301;BME280;25019;42.626;23.380;2023-01-29T06:33:56;94672.00;;;-1.93;100.00
39301;BME280;25019;42.626;23.380;2023-01-29T06:36:22;94699.66;;;-1.76;100.00
39301;BME280;25019;42.626;23.380;2023-01-29T06:38:48;94632.31;;;-2.12;100.00
39301;BME280;25019;42.626;23.380;2023-01-29T06:41:17;94699.31;;;-1.64;100.00
39301;BME280;25019;42.626;23.380;2023-01-29T06:43:43;94584.03;;;-2.31;100.00
39301;BME280;25019;42.626;23.380;2023-01-29T06:46:09;94710.38;;;-1.46;100.00
39301;BME280;25019;42.626;23.380;2023-01-29T06:48:35;94710.38;;;-1.46;100.00
39301;BME280;25019;42.626;23.380;2023-01-29T06:51:06;94711.66;;;-1.50;100.00
39301;BME280;25019;42.626;23.380;2023-01-29T06:53:33;94717.03;;;-1.52;100.00
39301;BME280;25019;42.626;23.380;2023-01-29T06:55:59;94712.50;;;-1.58;100.00
39301;BME280;25019;42.626;23.380;2023-01-29T06:58:25;94635.41;;;-2.17;100.00
39301;BME280;25019;42.626;23.380;2023-01-29T07:00:51;94721.94;;;-1.57;100.00
39301;BME280;25019;42.626;23.380;2023-01-29T07:03:17;94712.50;;;-1.58;100.00
39301;BME280;25019;42.626;23.380;2023-01-29T07:05:49;94710.19;;;-1.53;100.00
39301;BME280;25019;42.626;23.380;2023-01-29T07:08:16;94714.41;;;-1.52;100.00
39301;BME280;25019;42.626;23.380;2023-01-29T07:10:41;94720.59;;;-1.53;100.00
39301;BME280;25019;42.626;23.380;2023-01-29T07:13:07;94718.66;;;-1.51;100.00
39301;BME280;25019;42.626;23.380;2023-01-29T07:15:32;94709.22;;;-1.52;100.00
39301;BME280;25019;42.626;23.380;2023-01-29T07:18:00;94727.75;;;-1.38;100.00
39301;BME280;25019;42.626;23.380;2023-01-29T07:20:27;94719.16;;;-1.47;100.00
39301;BME280;25019;42.626;23.380;2023-01-29T07:22:53;94737.38;;;-1.39;100.00
39301;BME280;25019;42.626;23.380;2023-01-29T07:25:20;94732.97;;;-1.30;100.00
39301;BME280;25019;42.626;23.380;2023-01-29T07:27:45;94729.69;;;-1.24;100.00
39301;BME280;25019;42.626;23.380;2023-01-29T07:30:11;94728.69;;;-1.23;100.00
39301;BME280;25019;42.626;23.380;2023-01-29T07:32:37;94731.47;;;-1.24;100.00
39301;BME280;25019;42.626;23.380;2023-01-29T07:35:03;94739.81;;;-1.29;100.00
39301;BME280;25019;42.626;23.380;2023-01-29T07:37:28;94743.06;;;-1.27;100.00
39301;BME280;25019;42.626;23.380;2023-01-29T07:39:54;94726.94;;;-1.30;100.00
39301;BME280;25019;42.626;23.380;2023-01-29T07:42:19;94738.84;;;-1.28;100.00
39301;BME280;25019;42.626;23.380;2023-01-29T07:44:45;94734.09;;;-1.32;100.00
39301;BME280;25019;42.626;23.380;2023-01-29T07:47:10;94713.91;;;-1.39;100.00
39301;BME280;25019;42.626;23.380;2023-01-29T07:49:36;94678.31;;;-1.63;100.00
39301;BME280;25019;42.626;23.380;2023-01-29T07:52:02;94748.09;;;-1.17;100.00
39301;BME280;25019;42.626;23.380;2023-01-29T07:54:28;94669.00;;;-1.57;100.00
39301;BME280;25019;42.626;23.380;2023-01-29T07:56:53;94753.44;;;-1.10;100.00
39301;BME280;25019;42.626;23.380;2023-01-29T07:59:19;94749.19;;;-1.03;100.00
39301;BME280;25019;42.626;23.380;2023-01-29T08:01:45;94751.94;;;-1.04;100.00
39301;BME280;25019;42.626;23.380;2023-01-29T08:04:10;94693.25;;;-1.48;100.00
39301;BME280;25019;42.626;23.380;2023-01-29T08:06:36;94755.91;;;-1.17;100.00
39301;BME280;25019;42.626;23.380;2023-01-29T08:09:01;94762.25;;;-1.19;100.00
39301;BME280;25019;42.626;23.380;2023-01-29T08:11:27;94600.09;;;-2.19;100.00
39301;BME280;25019;42.626;23.380;2023-01-29T08:13:53;94673.91;;;-1.62;100.00
39301;BME280;25019;42.626;23.380;2023-01-29T08:16:19;94747.94;;;-0.76;100.00
39301;BME280;25019;42.626;23.380;2023-01-29T08:18:45;94756.94;;;-0.47;100.00
39301;BME280;25019;42.626;23.380;2023-01-29T08:21:13;94721.28;;;-0.54;100.00
39301;BME280;25019;42.626;23.380;2023-01-29T08:23:38;94752.72;;;-0.48;100.00
39301;BME280;25019;42.626;23.380;2023-01-29T08:26:04;94766.41;;;-0.46;100.00
39301;BME280;25019;42.626;23.380;2023-01-29T08:28:31;94752.94;;;-0.57;100.00
39301;BME280;25019;42.626;23.380;2023-01-29T08:30:57;94762.13;;;-0.70;100.00
39301;BME280;25019;42.626;23.380;2023-01-29T08:33:23;94767.38;;;-0.86;100.00
39301;BME280;25019;42.626;23.380;2023-01-29T08:35:50;94768.53;;;-0.89;100.00
39301;BME280;25019;42.626;23.380;2023-01-29T08:38:16;94774.25;;;-0.94;100.00
39301;BME280;25019;42.626;23.380;2023-01-29T08:40:42;94774.75;;;-0.90;100.00
39301;BME280;25019;42.626;23.380;2023-01-29T08:43:10;94775.72;;;-0.91;100.00
39301;BME280;25019;42.626;23.380;2023-01-29T08:45:38;94750.97;;;-0.95;100.00
39301;BME280;25019;42.626;23.380;2023-01-29T08:48:05;94780.22;;;-0.77;100.00
39301;BME280;25019;42.626;23.380;2023-01-29T08:50:31;94766.75;;;-0.88;100.00
39301;BME280;25019;42.626;23.380;2023-01-29T08:53:04;94761.84;;;-0.92;100.00
39301;BME280;25019;42.626;23.380;2023-01-29T08:55:37;94789.00;;;-0.69;100.00
39301;BME280;25019;42.626;23.380;2023-01-29T08:58:07;94795.84;;;-0.68;100.00
39301;BME280;25019;42.626;23.380;2023-01-29T09:00:34;94792.72;;;-0.64;100.00
39301;BME280;25019;42.626;23.380;2023-01-29T09:03:00;94790.50;;;-0.75;100.00
39301;BME280;25019;42.626;23.380;2023-01-29T09:05:28;94790.22;;;-0.88;100.00
39301;BME280;25019;42.626;23.380;2023-01-29T09:07:57;94796.44;;;-0.98;100.00
39301;BME280;25019;42.626;23.380;2023-01-29T09:10:23;94800.97;;;-0.83;100.00
39301;BME280;25019;42.626;23.380;2023-01-29T09:12:49;94801.59;;;-0.81;100.00
39301;BME280;25019;42.626;23.380;2023-01-29T09:15:14;94791.50;;;-0.76;100.00
39301;BME280;25019;42.626;23.380;2023-01-29T09:17:40;94770.50;;;-0.91;100.00
39301;BME280;25019;42.626;23.380;2023-01-29T09:20:06;94791.00;;;-0.80;100.00
39301;BME280;25019;42.626;23.380;2023-01-29T09:22:32;94793.59;;;-0.71;100.00
39301;BME280;25019;42.626;23.380;2023-01-29T09:24:58;94775.06;;;-0.85;100.00
39301;BME280;25019;42.626;23.380;2023-01-29T09:27:24;94783.03;;;-0.78;100.00
39301;BME280;25019;42.626;23.380;2023-01-29T09:29:49;94792.28;;;-0.67;100.00
39301;BME280;25019;42.626;23.380;2023-01-29T09:32:15;94792.91;;;-0.65;100.00
39301;BME280;25019;42.626;23.380;2023-01-29T09:34:40;94777.69;;;-0.53;100.00
39301;BME280;25019;42.626;23.380;2023-01-29T09:37:06;94781.41;;;-0.48;100.00
39301;BME280;25019;42.626;23.380;2023-01-29T09:39:32;94791.72;;;-0.46;100.00
39301;BME280;25019;42.626;23.380;2023-01-29T09:44:45;94758.97;;;-0.57;100.00
39301;BME280;25019;42.626;23.380;2023-01-29T09:47:15;94778.13;;;-0.41;100.00
39301;BME280;25019;42.626;23.380;2023-01-29T09:49:46;94707.59;;;-0.88;100.00
39301;BME280;25019;42.626;23.380;2023-01-29T09:52:22;94774.88;;;-0.43;100.00
39301;BME280;25019;42.626;23.380;2023-01-29T09:54:58;94708.06;;;-0.84;100.00
39301;BME280;25019;42.626;23.380;2023-01-29T09:57:33;94762.03;;;-0.45;100.00
39301;BME280;25019;42.626;23.380;2023-01-29T09:59:59;94767.06;;;-0.43;100.00
39301;BME280;25019;42.626;23.380;2023-01-29T10:10:52;94766.97;;;-0.27;100.00
39301;BME280;25019;42.626;23.380;2023-01-29T10:13:36;94756.72;;;-0.37;100.00
39301;BME280;25019;42.626;23.380;2023-01-29T10:19:15;94724.25;;;-0.66;100.00
39301;BME280;25019;42.626;23.380;2023-01-29T10:27:15;94758.00;;;-0.56;100.00
39301;BME280;25019;42.626;23.380;2023-01-29T10:29:42;94740.75;;;-0.65;100.00
39301;BME280;25019;42.626;23.380;2023-01-29T10:32:14;94686.56;;;-0.95;100.00
39301;BME280;25019;42.626;23.380;2023-01-29T10:37:18;94750.50;;;-0.59;100.00
39301;BME280;25019;42.626;23.380;2023-01-29T10:39:45;94659.47;;;-1.17;100.00
39301;BME280;25019;42.626;23.380;2023-01-29T10:45:20;94749.69;;;-0.68;100.00
39301;BME280;25019;42.626;23.380;2023-01-29T10:48:15;94745.22;;;-0.82;100.00
39301;BME280;25019;42.626;23.380;2023-01-29T10:50:54;94742.59;;;-0.82;100.00
39301;BME280;25019;42.626;23.380;2023-01-29T10:56:23;94736.72;;;-0.76;100.00
39301;BME280;25019;42.626;23.380;2023-01-29T10:58:58;94732.16;;;-0.74;100.00
39301;BME280;25019;42.626;23.380;2023-01-29T11:01:26;94723.03;;;-0.78;100.00
39301;BME280;25019;42.626;23.380;2023-01-29T11:04:03;94725.25;;;-0.67;100.00
39301;BME280;25019;42.626;23.380;2023-01-29T11:06:33;94737.78;;;-0.62;100.00
39301;BME280;25019;42.626;23.380;2023-01-29T11:11:42;94720.81;;;-0.58;100.00
39301;BME280;25019;42.626;23.380;2023-01-29T11:14:14;94724.06;;;-0.56;100.00
39301;BME280;25019;42.626;23.380;2023-01-29T11:16:43;94654.50;;;-1.03;100.00
39301;BME280;25019;42.626;23.380;2023-01-29T11:19:09;94729.66;;;-0.67;100.00
39301;BME280;25019;42.626;23.380;2023-01-29T11:21:52;94720.88;;;-0.74;100.00
39301;BME280;25019;42.626;23.380;2023-01-29T11:24:21;94705.66;;;-0.94;100.00
39301;BME280;25019;42.626;23.380;2023-01-29T11:26:48;94724.13;;;-0.72;100.00
39301;BME280;25019;42.626;23.380;2023-01-29T11:29:31;94706.09;;;-0.51;100.00
39301;BME280;25019;42.626;23.380;2023-01-29T11:31:59;94703.13;;;-0.48;100.00
39301;BME280;25019;42.626;23.380;2023-01-29T11:34:26;94702.41;;;-0.33;100.00
39301;BME280;25019;42.626;23.380;2023-01-29T11:37:00;94697.31;;;-0.26;100.00
39301;BME280;25019;42.626;23.380;2023-01-29T11:39:28;94699.72;;;-0.25;100.00
39301;BME280;25019;42.626;23.380;2023-01-29T11:44:40;94694.56;;;-0.10;100.00
39301;BME280;25019;42.626;23.380;2023-01-29T11:49:36;94543.31;;;-0.88;100.00
39301;BME280;25019;42.626;23.380;2023-01-29T11:52:06;94630.97;;;-0.32;100.00
39301;BME280;25019;42.626;23.380;2023-01-29T11:54:38;94620.75;;;-0.42;100.00
39301;BME280;25019;42.626;23.380;2023-01-29T11:57:19;94683.50;;;-0.12;100.00
39301;BME280;25019;42.626;23.380;2023-01-29T11:59:49;94684.53;;;0.02;100.00
39301;BME280;25019;42.626;23.380;2023-01-29T12:02:26;94591.69;;;-0.62;100.00
39301;BME280;25019;42.626;23.380;2023-01-29T12:04:57;94682.88;;;-0.14;100.00
39301;BME280;25019;42.626;23.380;2023-01-29T12:07:25;94616.63;;;-0.59;100.00
39301;BME280;25019;42.626;23.380;2023-01-29T12:09:53;94683.22;;;-0.17;100.00
39301;BME280;25019;42.626;23.380;2023-01-29T12:12:37;94685.75;;;-0.09;100.00
39301;BME280;25019;42.626;23.380;2023-01-29T12:17:46;94672.75;;;0.06;100.00
39301;BME280;25019;42.626;23.380;2023-01-29T12:20:18;94676.88;;;0.01;100.00
39301;BME280;25019;42.626;23.380;2023-01-29T12:22:52;94667.13;;;-0.06;100.00
39301;BME280;25019;42.626;23.380;2023-01-29T12:25:35;94676.25;;;-0.02;100.00
39301;BME280;25019;42.626;23.380;2023-01-29T12:28:24;94672.25;;;-0.12;100.00
39301;BME280;25019;42.626;23.380;2023-01-29T12:36:22;94645.69;;;-0.39;100.00
39301;BME280;25019;42.626;23.380;2023-01-29T12:38:49;94610.31;;;-0.65;100.00
39301;BME280;25019;42.626;23.380;2023-01-29T12:41:35;94684.75;;;-0.08;100.00
39301;BME280;25019;42.626;23.380;2023-01-29T12:46:59;94679.84;;;-0.03;100.00
39301;BME280;25019;42.626;23.380;2023-01-29T12:49:31;94660.53;;;-0.17;100.00
39301;BME280;25019;42.626;23.380;2023-01-29T12:52:10;94654.91;;;-0.28;100.00
39301;BME280;25019;42.626;23.380;2023-01-29T12:55:10;94670.50;;;-0.20;100.00
39301;BME280;25019;42.626;23.380;2023-01-29T12:57:46;94648.94;;;-0.37;100.00
39301;BME280;25019;42.626;23.380;2023-01-29T13:00:19;94674.38;;;-0.39;100.00
39301;BME280;25019;42.626;23.380;2023-01-29T13:02:49;94682.88;;;-0.37;100.00
39301;BME280;25019;42.626;23.380;2023-01-29T13:05:23;94675.34;;;-0.32;100.00
39301;BME280;25019;42.626;23.380;2023-01-29T13:07:56;94683.16;;;-0.32;100.00
39301;BME280;25019;42.626;23.380;2023-01-29T13:10:28;94660.94;;;-0.51;100.00
39301;BME280;25019;42.626;23.380;2023-01-29T13:13:13;94685.00;;;-0.18;100.00
39301;BME280;25019;42.626;23.380;2023-01-29T13:15:41;94657.81;;;-0.23;100.00
39301;BME280;25019;42.626;23.380;2023-01-29T13:20:59;94672.50;;;0.16;100.00
39301;BME280;25019;42.626;23.380;2023-01-29T13:23:32;94637.50;;;0.02;100.00
39301;BME280;25019;42.626;23.380;2023-01-29T13:25:58;94670.66;;;0.25;100.00
39301;BME280;25019;42.626;23.380;2023-01-29T13:28:25;94679.13;;;0.04;100.00
39301;BME280;25019;42.626;23.380;2023-01-29T13:34:13;94600.28;;;-0.53;100.00
39301;BME280;25019;42.626;23.380;2023-01-29T13:36:45;94557.50;;;-0.67;100.00
39301;BME280;25019;42.626;23.380;2023-01-29T13:39:27;94677.91;;;0.14;100.00
39301;BME280;25019;42.626;23.380;2023-01-29T13:41:55;94677.06;;;-0.01;100.00
39301;BME280;25019;42.626;23.380;2023-01-29T13:44:28;94699.97;;;0.12;100.00
39301;BME280;25019;42.626;23.380;2023-01-29T13:46:59;94615.75;;;-0.52;100.00
39301;BME280;25019;42.626;23.380;2023-01-29T13:52:26;94693.94;;;-0.12;100.00
39301;BME280;25019;42.626;23.380;2023-01-29T13:54:57;94680.47;;;-0.24;100.00
39301;BME280;25019;42.626;23.380;2023-01-29T14:07:59;94613.34;;;-1.16;100.00
39301;BME280;25019;42.626;23.380;2023-01-29T14:10:27;94685.69;;;-0.79;100.00
39301;BME280;25019;42.626;23.380;2023-01-29T14:13:24;94714.13;;;-0.61;100.00
39301;BME280;25019;42.626;23.380;2023-01-29T14:15:39;94714.53;;;-0.72;100.00
39301;BME280;25019;42.626;23.380;2023-01-29T14:18:35;94714.72;;;-0.82;100.00
39301;BME280;25019;42.626;23.380;2023-01-29T14:23:44;94613.81;;;-1.53;100.00
39301;BME280;25019;42.626;23.380;2023-01-29T14:26:29;94724.03;;;-0.87;100.00
39301;BME280;25019;42.626;23.380;2023-01-29T14:29:15;94654.47;;;-1.27;100.00
39301;BME280;25019;42.626;23.380;2023-01-29T14:34:26;94740.00;;;-0.91;100.00
39301;BME280;25019;42.626;23.380;2023-01-29T14:37:16;94749.66;;;-0.91;100.00
39301;BME280;25019;42.626;23.380;2023-01-29T14:39:54;94743.28;;;-0.88;100.00
39301;BME280;25019;42.626;23.380;2023-01-29T14:45:32;94748.03;;;-0.92;100.00
39301;BME280;25019;42.626;23.380;2023-01-29T14:53:20;94739.22;;;-0.99;100.00
39301;BME280;25019;42.626;23.380;2023-01-29T14:56:00;94729.13;;;-1.02;100.00